createdAt,value
2023-04-10T00:00:21.766Z,464.70
2023-04-10T00:01:21.746Z,392.10
2023-04-10T00:02:21.846Z,394.00
2023-04-10T00:03:21.919Z,533.50
2023-04-10T00:04:21.812Z,498.90
2023-04-10T00:05:21.705Z,429.70
2023-04-10T00:06:21.686Z,566.00
2023-04-10T00:07:21.695Z,626.00
2023-04-10T00:08:21.727Z,419.40
2023-04-10T00:09:21.645Z,542.00
2023-04-10T00:10:21.623Z,535.90
2023-04-10T00:11:21.641Z,541.00
2023-04-10T00:12:21.628Z,573.40
2023-04-10T00:13:21.679Z,586.00
2023-04-10T00:14:21.616Z,657.80
2023-04-10T00:15:21.599Z,607.40
2023-04-10T00:16:21.591Z,619.90
2023-04-10T00:17:21.586Z,462.20
2023-04-10T00:18:21.596Z,515.00
2023-04-10T00:19:21.547Z,489.90
2023-04-10T00:20:21.522Z,468.10
2023-04-10T00:21:21.561Z,626.60
2023-04-10T00:22:21.500Z,654.00
2023-04-10T00:23:21.537Z,681.30
2023-04-10T00:24:21.486Z,617.70
2023-04-10T00:25:21.471Z,593.80
2023-04-10T00:26:21.469Z,592.80
2023-04-10T00:27:21.447Z,387.70
2023-04-10T00:28:21.479Z,561.80
2023-04-10T00:29:21.420Z,560.10
2023-04-10T00:30:21.429Z,632.50
2023-04-10T00:31:21.440Z,639.40
2023-04-10T00:32:21.435Z,534.00
2023-04-10T00:33:21.422Z,535.30
2023-04-10T00:34:21.372Z,474.40
2023-04-10T00:35:21.349Z,379.80
2023-04-10T00:36:21.363Z,634.10
2023-04-10T00:37:21.314Z,531.80
2023-04-10T00:38:21.339Z,450.50
2023-04-10T00:39:21.286Z,559.90
2023-04-10T00:40:21.294Z,476.00
2023-04-10T00:41:21.280Z,458.70
2023-04-10T00:42:21.281Z,596.70
2023-04-10T00:43:21.300Z,578.70
2023-04-10T00:44:21.232Z,511.90
2023-04-10T00:45:21.247Z,523.90
2023-04-10T00:46:21.241Z,539.10
2023-04-10T00:47:21.226Z,351.40
2023-04-10T00:48:21.255Z,652.30
2023-04-10T00:49:21.207Z,573.10
2023-04-10T00:50:21.201Z,532.10
2023-04-10T00:51:21.167Z,524.70
2023-04-10T00:52:21.156Z,523.30
2023-04-10T00:53:21.196Z,457.60
2023-04-10T00:54:21.135Z,413.60
2023-04-10T00:55:21.126Z,428.20
2023-04-10T00:56:21.107Z,381.40
2023-04-10T00:57:21.097Z,542.90
2023-04-10T00:58:21.126Z,538.10
2023-04-10T00:59:21.080Z,484.70
2023-04-10T01:00:21.097Z,486.50
2023-04-10T01:01:21.086Z,498.90
2023-04-10T01:02:21.246Z,456.10
2023-04-10T01:03:21.217Z,473.20
2023-04-10T01:04:21.077Z,495.10
2023-04-10T01:05:21.007Z,434.50
2023-04-10T01:06:20.974Z,653.30
2023-04-10T01:07:20.957Z,659.30
2023-04-10T01:08:21.083Z,601.50
2023-04-10T01:09:20.952Z,469.70
2023-04-10T01:10:20.964Z,563.20
2023-04-10T01:11:20.929Z,459.10
2023-04-10T01:12:20.920Z,648.40
2023-04-10T01:13:20.949Z,634.90
2023-04-10T01:14:20.899Z,628.20
2023-04-10T01:15:20.883Z,624.30
2023-04-10T01:16:20.919Z,612.50
2023-04-10T01:17:20.863Z,553.70
2023-04-10T01:18:20.879Z,476.30
2023-04-10T01:19:20.839Z,405.90
2023-04-10T01:20:20.812Z,607.50
2023-04-10T01:21:20.808Z,387.70
2023-04-10T01:22:20.793Z,614.80
2023-04-10T01:23:20.828Z,589.50
2023-04-10T01:24:20.773Z,507.50
2023-04-10T01:25:20.765Z,492.20
2023-04-10T01:26:20.749Z,515.70
2023-04-10T01:27:20.751Z,490.00
2023-04-10T01:28:20.802Z,606.10
2023-04-10T01:29:20.727Z,689.70
2023-04-10T01:30:20.708Z,478.00
2023-04-10T01:31:20.832Z,572.70
2023-04-10T01:32:20.736Z,590.90
2023-04-10T01:33:20.719Z,431.40
2023-04-10T01:34:20.687Z,366.80
2023-04-10T01:35:20.655Z,363.60
2023-04-10T01:36:20.623Z,386.40
2023-04-10T01:37:20.606Z,418.90
2023-04-10T01:38:20.651Z,405.00
2023-04-10T01:39:20.594Z,365.20
2023-04-10T01:40:20.594Z,368.20
2023-04-10T01:41:20.577Z,372.00
2023-04-10T01:42:20.565Z,386.20
2023-04-10T01:43:20.615Z,391.30
2023-04-10T01:44:20.549Z,269.80
2023-04-10T01:45:20.563Z,307.20
2023-04-10T01:46:20.539Z,256.20
2023-04-10T01:47:20.511Z,497.90
2023-04-10T01:48:20.540Z,572.00
2023-04-10T01:49:20.497Z,374.00
2023-04-10T01:50:20.491Z,591.40
2023-04-10T01:51:20.457Z,509.20
2023-04-10T01:52:20.451Z,457.70
2023-04-10T01:53:20.481Z,457.70
2023-04-10T01:54:20.436Z,598.30
2023-04-10T01:55:20.424Z,548.50
2023-04-10T01:56:20.402Z,542.90
2023-04-10T01:57:20.433Z,544.50
2023-04-10T01:58:20.420Z,534.00
2023-04-10T01:59:20.363Z,517.10
2023-04-10T02:00:20.399Z,521.40
2023-04-10T02:01:29.229Z,519.60
2023-04-10T02:02:21.434Z,520.10
2023-04-10T02:03:20.637Z,539.30
2023-04-10T02:04:20.401Z,501.50
2023-04-10T02:05:20.299Z,406.90
2023-04-10T02:06:20.312Z,623.10
2023-04-10T02:07:20.327Z,549.80
2023-04-10T02:08:20.352Z,530.30
2023-04-10T02:09:20.254Z,519.80
2023-04-10T02:10:20.268Z,513.80
2023-04-10T02:11:20.296Z,503.30
2023-04-10T02:12:20.274Z,498.90
2023-04-10T02:13:20.282Z,483.90
2023-04-10T02:14:20.206Z,368.40
2023-04-10T02:15:20.196Z,517.60
2023-04-10T02:16:20.230Z,486.50
2023-04-10T02:17:20.198Z,491.70
2023-04-10T02:18:20.236Z,500.70
2023-04-10T02:19:20.183Z,506.00
2023-04-10T02:20:20.156Z,494.60
2023-04-10T02:21:20.158Z,490.30
2023-04-10T02:22:20.137Z,500.60
2023-04-10T02:23:20.132Z,500.20
2023-04-10T02:24:20.090Z,498.00
2023-04-10T02:25:20.074Z,343.60
2023-04-10T02:26:20.115Z,468.60
2023-04-10T02:27:20.040Z,424.30
2023-04-10T02:28:20.098Z,304.80
2023-04-10T02:29:20.046Z,286.70
2023-04-10T02:30:20.100Z,565.50
2023-04-10T02:31:20.066Z,521.60
2023-04-10T02:32:20.115Z,515.80
2023-04-10T02:33:20.040Z,525.50
2023-04-10T02:34:19.982Z,521.80
2023-04-10T02:35:19.965Z,518.00
2023-04-10T02:36:19.975Z,513.80
2023-04-10T02:37:19.946Z,255.80
2023-04-10T02:38:19.984Z,321.70
2023-04-10T02:39:19.931Z,287.20
2023-04-10T02:40:19.918Z,332.50
2023-04-10T02:41:19.900Z,304.00
2023-04-10T02:42:19.885Z,339.00
2023-04-10T02:43:19.874Z,268.10
2023-04-10T02:44:19.907Z,288.20
2023-04-10T02:45:19.850Z,345.50
2023-04-10T02:46:19.865Z,265.90
2023-04-10T02:47:19.871Z,270.20
2023-04-10T02:48:19.815Z,330.30
2023-04-10T02:49:19.872Z,308.80
2023-04-10T02:50:19.785Z,285.80
2023-04-10T02:51:19.774Z,317.70
2023-04-10T02:52:19.774Z,375.70
2023-04-10T02:53:19.758Z,316.60
2023-04-10T02:54:19.784Z,321.10
2023-04-10T02:55:19.733Z,395.10
2023-04-10T02:56:19.736Z,345.10
2023-04-10T02:57:19.708Z,323.50
2023-04-10T02:58:19.708Z,351.40
2023-04-10T02:59:19.723Z,266.30
2023-04-10T03:00:19.686Z,342.30
2023-04-10T03:01:19.818Z,280.80
2023-04-10T03:02:19.701Z,288.70
2023-04-10T03:03:19.723Z,298.40
2023-04-10T03:04:19.947Z,341.80
2023-04-10T03:05:19.607Z,317.90
2023-04-10T03:06:19.624Z,319.40
2023-04-10T03:07:19.592Z,465.10
2023-04-10T03:08:19.581Z,452.60
2023-04-10T03:09:19.633Z,382.40
2023-04-10T03:10:19.573Z,260.90
2023-04-10T03:11:19.544Z,271.60
2023-04-10T03:12:19.531Z,277.90
2023-04-10T03:13:19.545Z,285.60
2023-04-10T03:14:19.557Z,299.40
2023-04-10T03:15:19.492Z,340.00
2023-04-10T03:16:19.592Z,290.50
2023-04-10T03:17:19.469Z,327.70
2023-04-10T03:18:19.496Z,355.10
2023-04-10T03:19:19.492Z,303.20
2023-04-10T03:20:19.443Z,316.70
2023-04-10T03:21:19.439Z,426.50
2023-04-10T03:22:19.432Z,296.90
2023-04-10T03:23:19.494Z,328.60
2023-04-10T03:24:19.449Z,340.30
2023-04-10T03:25:19.393Z,298.80
2023-04-10T03:26:19.378Z,374.50
2023-04-10T03:27:19.362Z,298.00
2023-04-10T03:28:19.349Z,323.10
2023-04-10T03:29:19.383Z,297.00
2023-04-10T03:30:19.382Z,297.80
2023-04-10T03:31:19.342Z,346.90
2023-04-10T03:32:19.316Z,308.50
2023-04-10T03:33:19.289Z,403.80
2023-04-10T03:34:19.317Z,267.00
2023-04-10T03:35:19.263Z,328.80
2023-04-10T03:36:19.326Z,293.50
2023-04-10T03:37:19.246Z,334.00
2023-04-10T03:38:19.253Z,370.50
2023-04-10T03:39:19.295Z,324.50
2023-04-10T03:40:19.222Z,274.10
2023-04-10T03:41:19.197Z,405.00
2023-04-10T03:42:19.203Z,369.90
2023-04-10T03:43:19.180Z,384.20
2023-04-10T03:44:19.211Z,328.20
2023-04-10T03:45:19.163Z,320.40
2023-04-10T03:46:19.194Z,329.10
2023-04-10T03:47:19.141Z,342.60
2023-04-10T03:48:19.125Z,359.90
2023-04-10T03:49:19.144Z,382.70
2023-04-10T03:50:19.100Z,313.00
2023-04-10T03:51:19.084Z,300.00
2023-04-10T03:52:19.108Z,332.40
2023-04-10T03:53:19.082Z,328.20
2023-04-10T03:54:19.114Z,379.70
2023-04-10T03:55:19.170Z,314.30
2023-04-10T03:56:19.056Z,366.30
2023-04-10T03:57:19.019Z,311.50
2023-04-10T03:58:19.005Z,276.00
2023-04-10T03:59:19.040Z,334.10
2023-04-10T04:00:19.018Z,368.20
2023-04-10T04:01:18.967Z,299.40
2023-04-10T04:02:19.128Z,365.20
2023-04-10T04:03:19.150Z,330.30
2023-04-10T04:04:19.052Z,405.00
2023-04-10T04:05:18.950Z,359.60
2023-04-10T04:06:18.922Z,340.10
2023-04-10T04:07:18.914Z,383.40
2023-04-10T04:08:18.897Z,383.20
2023-04-10T04:09:18.918Z,410.40
2023-04-10T04:10:18.872Z,360.30
2023-04-10T04:11:18.859Z,395.40
2023-04-10T04:12:18.849Z,365.50
2023-04-10T04:13:18.850Z,353.20
2023-04-10T04:14:18.866Z,389.20
2023-04-10T04:15:18.809Z,379.60
2023-04-10T04:16:18.837Z,368.50
2023-04-10T04:17:18.779Z,382.70
2023-04-10T04:18:18.781Z,352.00
2023-04-10T04:19:18.805Z,395.10
2023-04-10T04:20:18.749Z,399.50
2023-04-10T04:21:18.746Z,382.00
2023-04-10T04:22:18.738Z,353.10
2023-04-10T04:23:18.705Z,370.30
2023-04-10T04:24:18.764Z,386.20
2023-04-10T04:25:18.708Z,342.70
2023-04-10T04:26:18.694Z,320.30
2023-04-10T04:27:18.665Z,346.00
2023-04-10T04:28:18.664Z,329.50
2023-04-10T04:29:18.688Z,278.40
2023-04-10T04:30:18.780Z,255.60
2023-04-10T04:31:18.775Z,263.60
2023-04-10T04:32:18.918Z,292.00
2023-04-10T04:33:18.682Z,262.90
2023-04-10T04:34:18.742Z,262.70
2023-04-10T04:35:18.682Z,258.80
2023-04-10T04:36:18.618Z,226.40
2023-04-10T04:37:18.583Z,208.20
2023-04-10T04:38:18.548Z,254.20
2023-04-10T04:39:18.603Z,235.60
2023-04-10T04:40:18.534Z,224.50
2023-04-10T04:41:20.482Z,240.10
2023-04-10T04:42:18.523Z,233.90
2023-04-10T04:43:18.492Z,236.30
2023-04-10T04:44:18.559Z,301.70
2023-04-10T04:45:18.465Z,481.60
2023-04-10T04:46:18.487Z,480.60
2023-04-10T04:47:18.455Z,405.40
2023-04-10T04:48:18.466Z,613.20
2023-04-10T04:49:18.463Z,484.00
2023-04-10T04:50:18.404Z,249.80
2023-04-10T04:51:18.468Z,458.30
2023-04-10T04:52:18.398Z,341.30
2023-04-10T04:53:18.367Z,226.80
2023-04-10T04:54:18.426Z,313.80
2023-04-10T04:55:18.462Z,314.70
2023-04-10T04:56:18.382Z,322.30
2023-04-10T04:57:18.334Z,244.70
2023-04-10T04:58:18.325Z,284.70
2023-04-10T04:59:18.361Z,273.60
2023-04-10T05:00:18.290Z,249.10
2023-04-10T05:01:18.330Z,292.50
2023-04-10T05:02:18.294Z,383.30
2023-04-10T05:03:18.446Z,432.80
2023-04-10T05:04:18.475Z,343.70
2023-04-10T05:05:18.233Z,490.60
2023-04-10T05:06:18.222Z,546.40
2023-04-10T05:07:18.235Z,799.60
2023-04-10T05:08:18.206Z,648.70
2023-04-10T05:09:18.275Z,776.70
2023-04-10T05:10:18.244Z,757.70
2023-04-10T05:11:18.167Z,396.30
2023-04-10T05:12:18.150Z,1999.90
2023-04-10T05:13:18.140Z,1999.90
2023-04-10T05:14:18.199Z,481.30
2023-04-10T05:15:18.156Z,505.30
2023-04-10T05:16:18.140Z,1999.90
2023-04-10T05:17:18.114Z,1999.90
2023-04-10T05:18:18.241Z,730.10
2023-04-10T05:19:18.139Z,1999.90
2023-04-10T05:20:18.066Z,1999.90
2023-04-10T05:21:18.056Z,1999.90
2023-04-10T05:22:18.707Z,1999.90
2023-04-10T05:23:18.025Z,243.20
2023-04-10T05:24:18.076Z,1999.90
2023-04-10T05:25:18.009Z,1999.90
2023-04-10T05:26:18.024Z,1999.90
2023-04-10T05:27:17.994Z,1999.90
2023-04-10T05:28:17.991Z,1999.90
2023-04-10T05:29:18.009Z,1999.90
2023-04-10T05:30:17.977Z,1999.90
2023-04-10T05:31:17.946Z,1999.90
2023-04-10T05:32:17.933Z,1999.90
2023-04-10T05:33:17.912Z,1999.90
2023-04-10T05:34:17.946Z,1999.90
2023-04-10T05:35:17.882Z,1999.90
2023-04-10T05:36:17.958Z,1999.90
2023-04-10T05:37:17.902Z,1999.90
2023-04-10T05:38:17.873Z,1999.90
2023-04-10T05:39:17.900Z,1999.90
2023-04-10T05:40:17.861Z,1999.90
2023-04-10T05:41:17.825Z,1999.90
2023-04-10T05:42:17.874Z,1999.90
2023-04-10T05:43:17.802Z,1999.90
2023-04-10T05:44:17.797Z,1999.90
2023-04-10T05:45:17.825Z,1999.90
2023-04-10T05:46:17.882Z,1999.90
2023-04-10T05:47:17.803Z,1999.90
2023-04-10T05:48:17.867Z,1999.90
2023-04-10T05:49:17.730Z,1999.90
2023-04-10T05:50:17.770Z,1999.90
2023-04-10T05:51:17.737Z,1999.90
2023-04-10T05:52:17.763Z,1999.90
2023-04-10T05:53:17.689Z,1999.90
2023-04-10T05:54:17.695Z,1999.90
2023-04-10T05:55:17.708Z,1999.90
2023-04-10T05:56:17.665Z,1999.90
2023-04-10T05:57:17.664Z,1999.90
2023-04-10T05:58:17.634Z,1999.90
2023-04-10T05:59:17.607Z,1999.90
2023-04-10T06:00:17.634Z,1999.90
2023-04-10T06:01:17.602Z,1999.90
2023-04-10T06:02:17.748Z,147.40
2023-04-10T06:03:17.658Z,1941.20
2023-04-10T06:04:17.747Z,1670.30
2023-04-10T06:05:17.760Z,1038.00
2023-04-10T06:06:17.547Z,200.70
2023-04-10T06:07:17.604Z,69.50
2023-04-10T06:08:17.517Z,87.20
2023-04-10T06:09:17.523Z,105.20
2023-04-10T06:10:17.601Z,76.00
2023-04-10T06:11:17.483Z,52.60
2023-04-10T06:12:17.486Z,57.60
2023-04-10T06:13:17.467Z,60.40
2023-04-10T06:14:17.445Z,67.40
2023-04-10T06:15:17.530Z,66.20
2023-04-10T06:16:17.450Z,55.80
2023-04-10T06:17:17.411Z,46.80
2023-04-10T06:18:17.411Z,45.20
2023-04-10T06:19:17.380Z,43.60
2023-04-10T06:20:17.419Z,47.90
2023-04-10T06:21:17.349Z,46.80
2023-04-10T06:22:17.359Z,47.20
2023-04-10T06:23:17.352Z,46.70
2023-04-10T06:24:17.326Z,47.70
2023-04-10T06:25:17.367Z,45.80
2023-04-10T06:26:17.302Z,48.40
2023-04-10T06:27:17.288Z,44.40
2023-04-10T06:28:17.271Z,41.70
2023-04-10T06:29:17.260Z,62.60
2023-04-10T06:30:17.333Z,62.20
2023-04-10T06:31:17.281Z,50.40
2023-04-10T06:32:18.028Z,44.20
2023-04-10T06:33:17.323Z,40.40
2023-04-10T06:34:17.210Z,57.80
2023-04-10T06:35:17.290Z,55.00
2023-04-10T06:36:17.213Z,53.30
2023-04-10T06:37:17.174Z,42.50
2023-04-10T06:38:17.182Z,29.10
2023-04-10T06:39:17.150Z,24.50
2023-04-10T06:40:17.224Z,25.90
2023-04-10T06:41:17.168Z,25.20
2023-04-10T06:42:17.112Z,25.00
2023-04-10T06:43:17.138Z,25.70
2023-04-10T06:44:17.109Z,23.10
2023-04-10T06:45:17.122Z,21.00
2023-04-10T06:46:17.104Z,21.50
2023-04-10T06:47:17.086Z,22.40
2023-04-10T06:48:17.046Z,24.20
2023-04-10T06:49:17.058Z,26.20
2023-04-10T06:50:17.088Z,28.80
2023-04-10T06:51:17.020Z,30.00
2023-04-10T06:52:17.004Z,30.90
2023-04-10T06:53:16.989Z,30.70
2023-04-10T06:54:16.989Z,31.60
2023-04-10T06:55:17.134Z,32.10
2023-04-10T06:56:16.995Z,30.30
2023-04-10T06:57:16.944Z,29.10
2023-04-10T06:58:16.929Z,27.30
2023-04-10T06:59:16.921Z,24.50
2023-04-10T07:00:16.966Z,25.60
2023-04-10T07:01:16.985Z,28.60
2023-04-10T07:02:16.907Z,30.10
2023-04-10T07:03:16.913Z,30.80
2023-04-10T07:04:16.906Z,33.20
2023-04-10T07:05:17.092Z,31.60
2023-04-10T07:06:16.942Z,29.90
2023-04-10T07:07:16.978Z,31.20
2023-04-10T07:08:16.833Z,31.80
2023-04-10T07:09:16.835Z,32.50
2023-04-10T07:10:16.854Z,29.00
2023-04-10T07:11:16.820Z,29.40
2023-04-10T07:12:16.761Z,26.20
2023-04-10T07:13:16.784Z,24.50
2023-04-10T07:14:16.782Z,21.80
2023-04-10T07:15:16.824Z,20.80
2023-04-10T07:16:16.826Z,18.90
2023-04-10T07:17:16.716Z,18.50
2023-04-10T07:18:16.703Z,18.30
2023-04-10T07:19:16.696Z,18.30
2023-04-10T07:20:16.721Z,18.00
2023-04-10T07:21:16.677Z,18.10
2023-04-10T07:22:16.661Z,17.50
2023-04-10T07:23:16.657Z,17.30
2023-04-10T07:24:16.660Z,16.50
2023-04-10T07:25:16.670Z,18.40
2023-04-10T07:26:16.599Z,19.10
2023-04-10T07:27:16.599Z,20.90
2023-04-10T07:28:16.595Z,20.40
2023-04-10T07:29:16.578Z,20.00
2023-04-10T07:30:16.637Z,19.40
2023-04-10T07:31:16.564Z,20.20
2023-04-10T07:32:16.729Z,20.60
2023-04-10T07:33:16.677Z,20.90
2023-04-10T07:34:16.518Z,21.70
2023-04-10T07:35:16.570Z,23.40
2023-04-10T07:36:16.586Z,26.00
2023-04-10T07:37:16.499Z,25.60
2023-04-10T07:38:16.467Z,23.90
2023-04-10T07:39:16.486Z,23.40
2023-04-10T07:40:16.492Z,24.40
2023-04-10T07:41:16.466Z,26.40
2023-04-10T07:42:16.441Z,26.30
2023-04-10T07:43:16.432Z,24.10
2023-04-10T07:44:16.407Z,22.60
2023-04-10T07:45:16.459Z,22.40
2023-04-10T07:46:16.482Z,22.10
2023-04-10T07:47:16.405Z,23.60
2023-04-10T07:48:16.362Z,22.00
2023-04-10T07:49:16.376Z,20.00
2023-04-10T07:50:16.443Z,20.60
2023-04-10T07:51:16.345Z,20.80
2023-04-10T07:52:16.306Z,19.10
2023-04-10T07:53:16.305Z,18.70
2023-04-10T07:54:16.292Z,18.30
2023-04-10T07:55:16.315Z,17.40
2023-04-10T07:56:16.258Z,15.80
2023-04-10T07:57:16.280Z,15.70
2023-04-10T07:58:16.238Z,14.50
2023-04-10T07:59:16.250Z,14.60
2023-04-10T08:00:16.279Z,15.40
2023-04-10T08:01:16.227Z,16.70
2023-04-10T08:02:16.303Z,18.20
2023-04-10T08:03:16.437Z,22.40
2023-04-10T08:04:16.305Z,22.40
2023-04-10T08:05:16.272Z,23.40
2023-04-10T08:06:16.149Z,22.60
2023-04-10T08:07:16.137Z,22.20
2023-04-10T08:08:16.143Z,22.30
2023-04-10T08:09:16.113Z,24.60
2023-04-10T08:10:16.137Z,25.60
2023-04-10T08:11:16.088Z,28.10
2023-04-10T08:12:16.075Z,30.30
2023-04-10T08:13:16.092Z,31.30
2023-04-10T08:14:18.591Z,31.10
2023-04-10T08:15:16.102Z,30.70
2023-04-10T08:16:16.058Z,33.00
2023-04-10T08:17:16.028Z,33.10
2023-04-10T08:18:16.016Z,32.50
2023-04-10T08:19:16.018Z,32.40
2023-04-10T08:20:16.043Z,28.30
2023-04-10T08:21:15.979Z,21.90
2023-04-10T08:22:15.953Z,17.70
2023-04-10T08:23:20.423Z,17.40
2023-04-10T08:24:16.949Z,17.40
2023-04-10T08:25:15.970Z,16.60
2023-04-10T08:26:15.925Z,17.70
2023-04-10T08:27:15.921Z,20.30
2023-04-10T08:28:15.887Z,20.90
2023-04-10T08:29:15.893Z,19.90
2023-04-10T08:30:15.919Z,21.20
2023-04-10T08:31:15.889Z,21.70
2023-04-10T08:32:15.853Z,22.60
2023-04-10T08:33:15.950Z,22.70
2023-04-10T08:34:15.831Z,22.10
2023-04-10T08:35:15.827Z,22.40
2023-04-10T08:36:17.677Z,22.00
2023-04-10T08:37:15.795Z,19.50
2023-04-10T08:38:15.787Z,20.30
2023-04-10T08:39:15.781Z,16.90
2023-04-10T08:40:15.746Z,14.00
2023-04-10T08:41:15.785Z,14.20
2023-04-10T08:42:15.748Z,15.00
2023-04-10T08:43:15.724Z,14.20
2023-04-10T08:44:15.723Z,13.20
2023-04-10T08:45:15.696Z,14.80
2023-04-10T08:46:15.741Z,16.10
2023-04-10T08:47:15.696Z,18.40
2023-04-10T08:48:15.673Z,19.10
2023-04-10T08:49:15.670Z,15.70
2023-04-10T08:50:15.634Z,14.70
2023-04-10T08:51:20.096Z,14.20
2023-04-10T08:52:15.617Z,12.70
2023-04-10T08:53:15.610Z,11.90
2023-04-10T08:54:15.592Z,11.90
2023-04-10T08:55:15.584Z,14.40
2023-04-10T08:56:15.613Z,16.00
2023-04-10T08:57:15.554Z,19.20
2023-04-10T08:58:15.553Z,23.00
2023-04-10T08:59:15.560Z,24.40
2023-04-10T09:00:23.064Z,23.60
2023-04-10T09:01:16.676Z,20.40
2023-04-10T09:02:15.599Z,18.30
2023-04-10T09:03:15.588Z,18.60
2023-04-10T09:04:15.577Z,22.40
2023-04-10T09:05:15.466Z,20.00
2023-04-10T09:06:15.486Z,21.80
2023-04-10T09:07:15.434Z,24.40
2023-04-10T09:08:15.425Z,23.10
2023-04-10T09:09:15.428Z,23.40
2023-04-10T09:10:15.433Z,22.20
2023-04-10T09:11:15.464Z,20.60
2023-04-10T09:12:15.401Z,19.60
2023-04-10T09:13:15.373Z,23.50
2023-04-10T09:14:15.363Z,15.80
2023-04-10T09:15:15.382Z,15.20
2023-04-10T09:16:15.570Z,14.70
2023-04-10T09:17:15.458Z,14.40
2023-04-10T09:18:15.327Z,12.80
2023-04-10T09:19:15.311Z,12.40
2023-04-10T09:20:15.296Z,12.00
2023-04-10T09:21:15.334Z,13.50
2023-04-10T09:22:15.265Z,12.40
2023-04-10T09:23:15.252Z,11.60
2023-04-10T09:24:15.228Z,12.40
2023-04-10T09:25:15.231Z,11.60
2023-04-10T09:26:15.406Z,11.50
2023-04-10T09:27:15.254Z,11.70
2023-04-10T09:28:15.204Z,11.50
2023-04-10T09:29:15.314Z,12.20
2023-04-10T09:30:15.184Z,12.80
2023-04-10T09:31:15.298Z,12.00
2023-04-10T09:32:15.168Z,12.20
2023-04-10T09:33:15.179Z,13.40
2023-04-10T09:34:15.148Z,15.90
2023-04-10T09:35:15.199Z,17.40
2023-04-10T09:36:15.197Z,16.90
2023-04-10T09:37:15.115Z,16.80
2023-04-10T09:38:15.091Z,16.90
2023-04-10T09:39:15.092Z,16.80
2023-04-10T09:40:15.106Z,14.50
2023-04-10T09:41:15.102Z,14.10
2023-04-10T09:42:15.087Z,14.80
2023-04-10T09:43:15.042Z,15.30
2023-04-10T09:44:15.063Z,16.00
2023-04-10T09:45:15.043Z,17.00
2023-04-10T09:46:15.197Z,16.50
2023-04-10T09:47:15.036Z,18.40
2023-04-10T09:48:15.036Z,17.20
2023-04-10T09:49:14.987Z,16.90
2023-04-10T09:50:15.014Z,16.70
2023-04-10T09:51:15.041Z,15.80
2023-04-10T09:52:15.131Z,15.60
2023-04-10T09:53:14.937Z,14.70
2023-04-10T09:54:14.925Z,13.90
2023-04-10T09:55:14.907Z,15.40
2023-04-10T09:56:14.966Z,16.50
2023-04-10T09:57:14.913Z,15.80
2023-04-10T09:58:14.899Z,16.10
2023-04-10T09:59:14.880Z,14.80
2023-04-10T10:00:14.869Z,15.30
2023-04-10T10:01:14.944Z,15.10
2023-04-10T10:02:14.972Z,15.50
2023-04-10T10:03:15.001Z,15.00
2023-04-10T10:04:14.834Z,15.70
2023-04-10T10:05:14.848Z,14.80
2023-04-10T10:06:14.842Z,15.00
2023-04-10T10:07:14.786Z,14.70
2023-04-10T10:08:14.765Z,14.20
2023-04-10T10:09:14.816Z,14.60
2023-04-10T10:10:14.736Z,14.10
2023-04-10T10:11:14.786Z,15.60
2023-04-10T10:12:14.707Z,15.00
2023-04-10T10:13:14.792Z,13.10
2023-04-10T10:14:14.697Z,13.80
2023-04-10T10:15:14.690Z,13.50
2023-04-10T10:16:14.775Z,14.10
2023-04-10T10:17:14.666Z,13.70
2023-04-10T10:18:14.645Z,13.20
2023-04-10T10:19:14.809Z,14.40
2023-04-10T10:20:14.638Z,12.60
2023-04-10T10:21:14.716Z,13.50
2023-04-10T10:22:14.610Z,12.80
2023-04-10T10:23:14.669Z,12.70
2023-04-10T10:24:14.612Z,13.60
2023-04-10T10:25:14.606Z,12.40
2023-04-10T10:26:14.620Z,13.10
2023-04-10T10:27:14.540Z,13.60
2023-04-10T10:28:14.551Z,12.50
2023-04-10T10:29:14.523Z,12.70
2023-04-10T10:30:28.296Z,12.60
2023-04-10T10:31:15.662Z,11.80
2023-04-10T10:32:14.493Z,12.90
2023-04-10T10:33:14.514Z,12.70
2023-04-10T10:34:14.464Z,12.40
2023-04-10T10:35:14.465Z,12.60
2023-04-10T10:36:14.528Z,12.60
2023-04-10T10:37:14.458Z,11.50
2023-04-10T10:38:14.437Z,12.10
2023-04-10T10:39:14.417Z,12.30
2023-04-10T10:40:14.428Z,12.50
2023-04-10T10:41:14.383Z,12.10
2023-04-10T10:42:14.447Z,12.60
2023-04-10T10:43:14.367Z,12.90
2023-04-10T10:44:14.358Z,12.60
2023-04-10T10:45:14.334Z,12.90
2023-04-10T10:46:14.476Z,12.30
2023-04-10T10:47:14.366Z,13.00
2023-04-10T10:48:14.331Z,13.20
2023-04-10T10:49:14.318Z,12.80
2023-04-10T10:50:14.364Z,12.40
2023-04-10T10:51:14.297Z,13.00
2023-04-10T10:52:14.308Z,12.80
2023-04-10T10:53:14.269Z,12.50
2023-04-10T10:54:14.313Z,12.10
2023-04-10T10:55:14.224Z,12.80
2023-04-10T10:56:14.236Z,12.30
2023-04-10T10:57:14.263Z,12.80
2023-04-10T10:58:14.208Z,12.20
2023-04-10T10:59:14.193Z,12.30
2023-04-10T11:00:14.203Z,11.60
2023-04-10T11:01:14.259Z,12.10
2023-04-10T11:02:14.385Z,12.00
2023-04-10T11:03:14.328Z,12.20
2023-04-10T11:04:14.209Z,11.60
2023-04-10T11:05:14.154Z,11.70
2023-04-10T11:06:14.119Z,11.70
2023-04-10T11:07:14.301Z,11.80
2023-04-10T11:08:14.119Z,11.80
2023-04-10T11:09:14.099Z,11.80
2023-04-10T11:10:14.115Z,11.10
2023-04-10T11:11:14.097Z,11.30
2023-04-10T11:12:14.090Z,11.20
2023-04-10T11:13:14.045Z,10.90
2023-04-10T11:14:14.041Z,10.30
2023-04-10T11:15:14.124Z,11.10
2023-04-10T11:16:14.188Z,10.40
2023-04-10T11:17:14.037Z,9.90
2023-04-10T11:18:14.021Z,10.30
2023-04-10T11:19:16.281Z,10.60
2023-04-10T11:20:13.974Z,10.20
2023-04-10T11:21:13.952Z,9.60
2023-04-10T11:22:13.961Z,10.40
2023-04-10T11:23:13.925Z,11.00
2023-04-10T11:24:13.914Z,10.40
2023-04-10T11:25:13.905Z,10.50
2023-04-10T11:26:13.883Z,10.30
2023-04-10T11:27:13.912Z,10.20
2023-04-10T11:28:13.869Z,10.30
2023-04-10T11:29:13.884Z,11.60
2023-04-10T11:30:13.911Z,11.10
2023-04-10T11:31:13.856Z,10.50
2023-04-10T11:32:14.036Z,11.20
2023-04-10T11:33:13.806Z,11.50
2023-04-10T11:34:13.821Z,11.50
2023-04-10T11:35:13.778Z,11.70
2023-04-10T11:36:13.762Z,11.20
2023-04-10T11:37:13.838Z,11.30
2023-04-10T11:38:13.750Z,11.50
2023-04-10T11:39:13.719Z,12.30
2023-04-10T11:40:13.712Z,12.50
2023-04-10T11:41:13.714Z,11.70
2023-04-10T11:42:13.756Z,12.50
2023-04-10T11:43:13.681Z,12.40
2023-04-10T11:44:13.682Z,14.30
2023-04-10T11:45:13.687Z,13.70
2023-04-10T11:46:13.690Z,12.50
2023-04-10T11:47:13.692Z,12.10
2023-04-10T11:48:13.651Z,13.20
2023-04-10T11:49:13.618Z,13.00
2023-04-10T11:50:13.760Z,13.30
2023-04-10T11:51:13.604Z,13.30
2023-04-10T11:52:13.637Z,13.60
2023-04-10T11:53:13.577Z,13.50
2023-04-10T11:54:13.633Z,12.90
2023-04-10T11:55:13.549Z,12.50
2023-04-10T11:56:13.542Z,13.00
2023-04-10T11:57:13.558Z,13.50
2023-04-10T11:58:13.505Z,13.30
2023-04-10T11:59:13.540Z,13.00
2023-04-10T12:00:13.603Z,13.00
2023-04-10T12:01:13.497Z,12.30
2023-04-10T12:02:13.573Z,13.30
2023-04-10T12:03:13.609Z,13.00
2023-04-10T12:04:13.550Z,12.60
2023-04-10T12:05:13.565Z,12.80
2023-04-10T12:06:13.427Z,12.80
2023-04-10T12:07:13.457Z,12.50
2023-04-10T12:08:13.432Z,12.60
2023-04-10T12:09:14.436Z,12.50
2023-04-10T12:10:13.519Z,12.90
2023-04-10T12:11:13.387Z,13.30
2023-04-10T12:12:13.405Z,12.40
2023-04-10T12:13:13.368Z,15.60
2023-04-10T12:14:13.378Z,13.70
2023-04-10T12:15:13.345Z,13.40
2023-04-10T12:16:13.575Z,11.40
2023-04-10T12:17:13.378Z,12.30
2023-04-10T12:18:13.296Z,11.00
2023-04-10T12:19:13.300Z,10.70
2023-04-10T12:20:13.279Z,10.90
2023-04-10T12:21:13.260Z,10.90
2023-04-10T12:22:14.084Z,10.50
2023-04-10T12:23:13.249Z,10.20
2023-04-10T12:24:13.284Z,10.80
2023-04-10T12:25:13.212Z,10.30
2023-04-10T12:26:13.215Z,10.40
2023-04-10T12:27:13.236Z,10.00
2023-04-10T12:28:13.207Z,9.90
2023-04-10T12:29:13.170Z,10.20
2023-04-10T12:30:13.178Z,9.50
2023-04-10T12:31:13.192Z,9.20
2023-04-10T12:32:13.203Z,9.60
2023-04-10T12:33:13.132Z,9.10
2023-04-10T12:34:13.129Z,9.20
2023-04-10T12:35:13.133Z,8.90
2023-04-10T12:36:13.105Z,9.30
2023-04-10T12:37:13.132Z,8.90
2023-04-10T12:38:13.119Z,9.30
2023-04-10T12:39:13.136Z,8.80